Time;durP1;ratioP1;P1;durP2;ratioP2;P2;SDS_P1;SDS_P2;PMS_P1;PMS_P2;Temp;Humidity;BMP_temperature;BMP_pressure;BME280_temperature;BME280_humidity;BME280_pressure;Samples;Min_cycle;Max_cycle;Signal;HPM_P1;HPM_P2
2023/07/19 00:01:16;;;;;;;0.70;0.70;;;;;17.60;95834.00;;;;5055266;28;20192;-57
2023/07/19 00:03:45;;;;;;;0.80;0.80;;;;;17.40;95844.00;;;;5056087;28;20220;-57
2023/07/19 00:06:12;;;;;;;0.87;0.87;;;;;17.50;95835.00;;;;5053732;28;20719;-56
2023/07/19 00:08:40;;;;;;;1.13;1.13;;;;;17.50;95837.00;;;;5054371;28;20200;-56
2023/07/19 00:11:07;;;;;;;0.60;0.60;;;;;17.50;95837.00;;;;5056022;28;20524;-56
2023/07/19 00:13:34;;;;;;;0.90;0.90;;;;;17.50;95832.00;;;;5054906;28;20246;-56
2023/07/19 00:16:02;;;;;;;1.17;1.17;;;;;17.40;95827.00;;;;5054827;28;20207;-56
2023/07/19 00:18:29;;;;;;;1.37;1.27;;;;;17.50;95842.00;;;;5054852;28;20195;-56
2023/07/19 00:20:58;;;;;;;0.77;0.77;;;;;17.50;95827.00;;;;5054852;28;20203;-56
2023/07/19 00:23:26;;;;;;;2.23;1.53;;;;;17.40;95831.00;;;;5054680;28;20220;-56
2023/07/19 00:25:53;;;;;;;0.60;0.60;;;;;17.30;95832.00;;;;5054798;28;20694;-56
2023/07/19 00:28:21;;;;;;;0.80;0.80;;;;;17.40;95821.00;;;;5054764;28;20188;-56
2023/07/19 00:30:48;;;;;;;7.93;1.50;;;;;17.40;95813.00;;;;5054658;28;20192;-56
2023/07/19 00:33:15;;;;;;;0.73;0.73;;;;;17.40;95831.00;;;;5054554;28;20199;-56
2023/07/19 00:35:43;;;;;;;0.63;0.63;;;;;17.30;95841.00;;;;5054807;28;20222;-55
2023/07/19 00:38:13;;;;;;;0.60;0.60;;;;;17.20;95833.00;;;;5054662;28;20650;-56
2023/07/19 00:40:41;;;;;;;1.23;1.23;;;;;17.10;95835.00;;;;5055074;28;20592;-56
2023/07/19 00:43:10;;;;;;;0.80;0.70;;;;;17.00;95842.00;;;;5054319;28;20224;-56
2023/07/19 00:45:44;;;;;;;0.80;0.80;;;;;17.00;95827.00;;;;5054267;28;20273;-56
2023/07/19 00:48:12;;;;;;;0.87;0.87;;;;;17.00;95830.00;;;;5054338;28;20179;-56
2023/07/19 00:50:39;;;;;;;2.17;1.57;;;;;17.00;95825.00;;;;5053735;28;20267;-56
2023/07/19 00:53:07;;;;;;;1.37;1.33;;;;;17.00;95822.00;;;;5054167;28;20192;-56
2023/07/19 00:55:36;;;;;;;0.60;0.60;;;;;16.90;95827.00;;;;5054033;28;20188;-56
2023/07/19 00:58:04;;;;;;;1.37;1.27;;;;;16.90;95835.00;;;;5054105;28;20192;-58
2023/07/19 01:00:31;;;;;;;1.07;1.07;;;;;16.90;95829.00;;;;5054074;28;20188;-56
2023/07/19 01:02:59;;;;;;;0.97;0.97;;;;;16.90;95823.00;;;;5053928;28;20220;-56
2023/07/19 01:05:26;;;;;;;1.60;1.17;;;;;16.90;95820.00;;;;5053995;28;20220;-57
2023/07/19 01:07:54;;;;;;;0.60;0.60;;;;;17.00;95827.00;;;;5053848;28;20273;-56
2023/07/19 01:10:23;;;;;;;0.60;0.60;;;;;16.70;95817.00;;;;5053922;28;20195;-56
2023/07/19 01:13:04;;;;;;;0.80;0.80;;;;;16.60;95826.00;;;;5052587;28;20226;-57
2023/07/19 01:15:32;;;;;;;0.50;0.50;;;;;16.60;95824.00;;;;5053742;28;20238;-57
2023/07/19 01:17:59;;;;;;;1.33;1.23;;;;;16.70;95822.00;;;;5053728;28;20674;-57
2023/07/19 01:20:27;;;;;;;0.47;0.47;;;;;16.60;95838.00;;;;5053701;28;20192;-56
2023/07/19 01:22:56;;;;;;;1.40;1.30;;;;;16.70;95827.00;;;;5053561;28;20216;-57
2023/07/19 01:25:24;;;;;;;0.70;0.70;;;;;16.60;95836.00;;;;5053589;28;20200;-57
2023/07/19 01:27:52;;;;;;;1.00;1.00;;;;;16.60;95837.00;;;;5053703;28;20595;-57
2023/07/19 01:30:19;;;;;;;0.63;0.63;;;;;16.50;95829.00;;;;5054048;28;20196;-57
2023/07/19 01:32:47;;;;;;;1.03;1.03;;;;;16.50;95823.00;;;;5053475;28;20193;-57
2023/07/19 01:35:15;;;;;;;1.27;1.17;;;;;16.50;95816.00;;;;5053431;28;20674;-57
2023/07/19 01:37:42;;;;;;;0.87;0.87;;;;;16.20;95824.00;;;;5053369;28;20583;-56
2023/07/19 01:40:12;;;;;;;1.00;1.00;;;;;16.30;95834.00;;;;5053355;28;20710;-56
2023/07/19 01:42:40;;;;;;;1.20;1.20;;;;;16.30;95828.00;;;;5053225;28;20196;-56
2023/07/19 01:45:08;;;;;;;0.80;0.80;;;;;16.30;95828.00;;;;5053437;28;20654;-56
2023/07/19 01:47:36;;;;;;;1.07;1.07;;;;;16.30;95828.00;;;;5053123;28;20216;-56
2023/07/19 01:50:04;;;;;;;0.40;0.40;;;;;16.40;95821.00;;;;5053209;28;20266;-56
2023/07/19 01:52:31;;;;;;;0.60;0.60;;;;;16.40;95808.00;;;;5053365;28;20211;-56
2023/07/19 01:54:59;;;;;;;0.60;0.60;;;;;16.40;95813.00;;;;5053134;28;20196;-56
2023/07/19 01:57:27;;;;;;;1.30;1.20;;;;;16.40;95818.00;;;;5052986;28;20215;-56
2023/07/19 01:59:55;;;;;;;0.93;0.93;;;;;16.30;95813.00;;;;5053249;28;20551;-56
2023/07/19 02:02:22;;;;;;;4.17;1.47;;;;;16.10;95809.00;;;;5052159;28;20206;-57
2023/07/19 02:04:50;;;;;;;0.60;0.60;;;;;16.10;95818.00;;;;5053153;28;20227;-57
2023/07/19 02:07:17;;;;;;;0.93;0.93;;;;;16.10;95823.00;;;;5052806;28;20290;-56
2023/07/19 02:09:45;;;;;;;1.13;1.07;;;;;16.10;95819.00;;;;5052923;28;20202;-56
2023/07/19 02:12:12;;;;;;;0.93;0.93;;;;;16.20;95818.00;;;;5053123;28;20202;-57
2023/07/19 02:14:41;;;;;;;1.00;1.00;;;;;16.10;95815.00;;;;5053105;28;20195;-56
2023/07/19 02:17:08;;;;;;;1.00;1.00;;;;;16.10;95811.00;;;;5052711;28;20260;-57
2023/07/19 02:19:35;;;;;;;0.80;0.80;;;;;16.00;95813.00;;;;5052899;28;20663;-57
2023/07/19 02:22:03;;;;;;;0.70;0.70;;;;;16.00;95815.00;;;;5052766;28;20196;-57
2023/07/19 02:24:30;;;;;;;0.93;0.93;;;;;16.00;95813.00;;;;5053151;28;20306;-57
2023/07/19 02:26:58;;;;;;;0.90;0.90;;;;;16.00;95809.00;;;;5072630;22;20234;-54
2023/07/19 02:29:26;;;;;;;0.53;0.53;;;;;16.10;95815.00;;;;5072799;28;20654;-54
2023/07/19 02:31:55;;;;;;;0.63;0.63;;;;;16.00;95813.00;;;;5072858;28;20191;-54
2023/07/19 02:34:22;;;;;;;0.97;0.97;;;;;15.90;95821.00;;;;5071892;28;20238;-54
2023/07/19 02:36:50;;;;;;;0.63;0.63;;;;;15.90;95824.00;;;;5072767;28;20215;-54
2023/07/19 02:39:20;;;;;;;0.70;0.70;;;;;15.90;95827.00;;;;5072865;28;20253;-54
2023/07/19 02:41:47;;;;;;;0.90;0.90;;;;;15.90;95827.00;;;;5072989;28;20199;-53
2023/07/19 02:44:15;;;;;;;0.93;0.80;;;;;15.90;95819.00;;;;5072650;28;20215;-54
2023/07/19 02:46:42;;;;;;;0.93;0.93;;;;;15.90;95828.00;;;;5072980;28;20238;-54
2023/07/19 02:49:11;;;;;;;1.60;1.43;;;;;15.90;95820.00;;;;5072811;28;20215;-54
2023/07/19 02:51:39;;;;;;;0.70;0.70;;;;;15.90;95822.00;;;;5072717;28;20192;-53
2023/07/19 02:54:06;;;;;;;8.03;1.40;;;;;15.90;95832.00;;;;5072775;28;20191;-53
2023/07/19 02:56:33;;;;;;;0.50;0.50;;;;;15.90;95833.00;;;;5072753;28;20235;-53
2023/07/19 02:59:02;;;;;;;0.83;0.83;;;;;15.80;95840.00;;;;5072780;28;20199;-54
2023/07/19 03:01:30;;;;;;;0.87;0.87;;;;;15.80;95846.00;;;;5072688;28;20222;-54
2023/07/19 03:03:59;;;;;;;0.97;0.97;;;;;15.80;95846.00;;;;5073006;28;20223;-54
2023/07/19 03:06:28;;;;;;;0.70;0.70;;;;;15.80;95849.00;;;;5072472;28;20192;-54
2023/07/19 03:08:56;;;;;;;0.50;0.50;;;;;15.70;95843.00;;;;5072424;28;20654;-53
2023/07/19 03:11:24;;;;;;;0.60;0.60;;;;;15.50;95849.00;;;;5072522;28;20196;-54
2023/07/19 03:13:51;;;;;;;1.43;1.43;;;;;15.60;95847.00;;;;5056713;28;20203;-54
2023/07/19 03:16:19;;;;;;;1.03;1.03;;;;;15.60;95855.00;;;;5076355;28;20551;-54
2023/07/19 03:18:47;;;;;;;0.90;0.90;;;;;15.70;95859.00;;;;5076172;28;20253;-54
2023/07/19 03:21:14;;;;;;;0.80;0.80;;;;;15.60;95851.00;;;;5076108;28;20199;-54
2023/07/19 03:23:43;;;;;;;1.03;1.03;;;;;15.60;95861.00;;;;5076166;28;20612;-55
2023/07/19 03:26:10;;;;;;;1.80;1.00;;;;;15.60;95857.00;;;;5075929;28;20191;-54
2023/07/19 03:28:38;;;;;;;1.07;1.07;;;;;15.60;95869.00;;;;5075869;28;20207;-54
2023/07/19 03:31:11;;;;;;;0.77;0.77;;;;;15.60;95872.00;;;;5076404;28;20203;-54
2023/07/19 03:33:39;;;;;;;0.50;0.50;;;;;15.40;95862.00;;;;5076148;28;20184;-54
2023/07/19 03:36:06;;;;;;;0.80;0.80;;;;;15.40;95866.00;;;;5075878;28;20554;-55
2023/07/19 03:38:34;;;;;;;1.00;1.00;;;;;15.40;95870.00;;;;5075640;28;20218;-54
2023/07/19 03:41:09;;;;;;;0.83;0.83;;;;;15.40;95874.00;;;;5057716;28;20659;-54
2023/07/19 03:43:37;;;;;;;0.53;0.53;;;;;15.50;95873.00;;;;5075852;28;20219;-54
2023/07/19 03:46:06;;;;;;;0.67;0.67;;;;;15.50;95872.00;;;;5075632;28;20670;-54
2023/07/19 03:48:35;;;;;;;2.53;1.23;;;;;15.60;95878.00;;;;5076065;28;20211;-54
2023/07/19 03:51:03;;;;;;;0.67;0.67;;;;;15.60;95873.00;;;;5076029;28;20203;-54
2023/07/19 03:53:31;;;;;;;1.37;1.30;;;;;15.60;95878.00;;;;5075481;28;20198;-55
2023/07/19 03:56:00;;;;;;;0.93;0.93;;;;;15.60;95873.00;;;;5075451;28;20188;-54
2023/07/19 03:58:29;;;;;;;0.70;0.70;;;;;15.50;95881.00;;;;5075318;28;20219;-54
2023/07/19 04:00:57;;;;;;;1.27;1.27;;;;;15.60;95879.00;;;;5057859;28;20659;-54
2023/07/19 04:03:26;;;;;;;1.37;0.93;;;;;15.60;95883.00;;;;5075460;28;20195;-54
2023/07/19 04:05:54;;;;;;;1.10;1.10;;;;;15.50;95887.00;;;;5057279;28;20658;-54
2023/07/19 04:08:22;;;;;;;0.67;0.67;;;;;15.60;95894.00;;;;5075156;28;20273;-54
2023/07/19 04:10:49;;;;;;;1.00;1.00;;;;;15.60;95900.00;;;;5075210;28;20195;-54
2023/07/19 04:13:17;;;;;;;1.90;0.83;;;;;15.60;95892.00;;;;5075620;28;20575;-54
2023/07/19 04:15:45;;;;;;;0.90;0.90;;;;;15.60;95886.00;;;;5075060;28;20234;-54
2023/07/19 04:18:13;;;;;;;1.03;1.03;;;;;15.60;95892.00;;;;5074994;28;20223;-54
2023/07/19 04:20:40;;;;;;;0.77;0.77;;;;;15.60;95888.00;;;;5075793;28;20523;-54
2023/07/19 04:23:08;;;;;;;1.00;1.00;;;;;15.60;95890.00;;;;5075415;28;20195;-54
2023/07/19 04:25:36;;;;;;;1.00;1.00;;;;;15.70;95893.00;;;;5074365;28;20258;-55
2023/07/19 04:28:03;;;;;;;0.80;0.80;;;;;15.70;95887.00;;;;5074949;28;20226;-55
2023/07/19 04:30:31;;;;;;;0.97;0.97;;;;;15.70;95888.00;;;;5075035;28;20191;-54
2023/07/19 04:32:59;;;;;;;0.80;0.80;;;;;15.60;95896.00;;;;5075759;28;20195;-54
2023/07/19 04:35:29;;;;;;;0.50;0.50;;;;;15.70;95891.00;;;;5075234;28;20195;-61
2023/07/19 04:37:56;;;;;;;1.17;1.07;;;;;15.70;95895.00;;;;5074710;28;20212;-54
2023/07/19 04:40:24;;;;;;;0.67;0.67;;;;;15.80;95893.00;;;;5074816;28;20203;-54
2023/07/19 04:42:52;;;;;;;0.73;0.73;;;;;15.90;95895.00;;;;5074507;28;20219;-54
2023/07/19 04:45:19;;;;;;;1.70;1.07;;;;;16.00;95888.00;;;;5074437;28;20277;-54
2023/07/19 04:47:47;;;;;;;1.03;0.97;;;;;16.20;95887.00;;;;5056561;28;20215;-54
2023/07/19 04:50:16;;;;;;;2.93;1.67;;;;;16.20;95886.00;;;;5074641;28;20634;-54
2023/07/19 04:52:45;;;;;;;0.83;0.83;;;;;16.20;95882.00;;;;5074327;28;20257;-54
2023/07/19 04:55:12;;;;;;;0.97;0.87;;;;;16.30;95881.00;;;;5074435;28;20385;-54
2023/07/19 04:57:40;;;;;;;1.03;1.03;;;;;16.20;95874.00;;;;5074125;28;20219;-54
2023/07/19 05:00:11;;;;;;;0.80;0.80;;;;;16.00;95874.00;;;;5074111;28;20188;-54
2023/07/19 05:02:39;;;;;;;7.03;1.90;;;;;16.10;95874.00;;;;5074062;28;20179;-54
2023/07/19 05:05:07;;;;;;;0.60;0.60;;;;;16.20;95870.00;;;;5073918;28;20306;-55
2023/07/19 05:07:37;;;;;;;0.90;0.90;;;;;16.30;95871.00;;;;5073848;28;20208;-54
2023/07/19 05:10:06;;;;;;;0.60;0.60;;;;;16.30;95867.00;;;;5073812;28;20199;-54
2023/07/19 05:12:34;;;;;;;0.83;0.83;;;;;16.30;95869.00;;;;5074073;28;20191;-54
2023/07/19 05:15:01;;;;;;;0.97;0.97;;;;;16.40;95863.00;;;;5073995;28;20199;-54
2023/07/19 05:17:29;;;;;;;0.50;0.50;;;;;16.40;95861.00;;;;5073647;28;20207;-54
2023/07/19 05:19:56;;;;;;;1.13;1.13;;;;;16.50;95865.00;;;;5073786;28;20245;-54
2023/07/19 05:22:24;;;;;;;1.20;1.20;;;;;16.60;95866.00;;;;5073665;28;20196;-54
2023/07/19 05:24:52;;;;;;;2.57;1.53;;;;;16.70;95866.00;;;;5073582;28;20207;-54
2023/07/19 05:27:20;;;;;;;4.33;1.17;;;;;16.70;95867.00;;;;5055483;28;20219;-54
2023/07/19 05:29:47;;;;;;;0.70;0.70;;;;;16.80;95865.00;;;;5073881;28;20194;-54
2023/07/19 05:32:15;;;;;;;0.67;0.67;;;;;17.00;95856.00;;;;5073517;28;20673;-54
2023/07/19 05:34:42;;;;;;;0.73;0.73;;;;;17.00;95868.00;;;;5073794;28;20187;-54
2023/07/19 05:37:10;;;;;;;1.07;1.07;;;;;17.10;95867.00;;;;5073434;28;20216;-54
2023/07/19 05:39:37;;;;;;;1.23;1.23;;;;;17.20;95861.00;;;;5073491;28;20194;-54
2023/07/19 05:42:06;;;;;;;0.67;0.67;;;;;17.20;95873.00;;;;5073478;28;20198;-55
2023/07/19 05:44:34;;;;;;;2.23;2.13;;;;;17.40;95875.00;;;;5073265;28;20218;-55
2023/07/19 05:47:01;;;;;;;0.70;0.70;;;;;17.30;95873.00;;;;5073227;28;20207;-54
2023/07/19 05:49:29;;;;;;;0.67;0.67;;;;;17.40;95874.00;;;;5073567;28;20206;-54
2023/07/19 05:51:56;;;;;;;0.87;0.87;;;;;17.50;95875.00;;;;5073790;28;20630;-54
2023/07/19 05:54:24;;;;;;;0.80;0.80;;;;;17.60;95886.00;;;;5073146;28;20241;-54
2023/07/19 05:56:51;;;;;;;1.00;1.00;;;;;17.80;95891.00;;;;5073326;28;20560;-54
2023/07/19 05:59:20;;;;;;;0.60;0.60;;;;;17.90;95891.00;;;;5073184;28;20225;-54
2023/07/19 06:01:47;;;;;;;0.70;0.70;;;;;18.00;95896.00;;;;5073369;28;20194;-54
2023/07/19 06:04:15;;;;;;;1.30;1.30;;;;;18.20;95895.00;;;;5073300;28;20566;-54
2023/07/19 06:06:42;;;;;;;1.07;1.07;;;;;18.40;95893.00;;;;5072973;28;20215;-55
2023/07/19 06:09:10;;;;;;;0.60;0.60;;;;;18.40;95894.00;;;;5073417;28;20202;-54
2023/07/19 06:11:37;;;;;;;1.03;0.97;;;;;18.50;95898.00;;;;5073242;28;20195;-54
2023/07/19 06:14:05;;;;;;;1.07;1.07;;;;;18.70;95900.00;;;;5073903;28;20218;-54
2023/07/19 06:16:33;;;;;;;1.47;1.17;;;;;18.80;95902.00;;;;5072901;28;20207;-54
2023/07/19 06:19:01;;;;;;;0.70;0.70;;;;;18.90;95900.00;;;;5072787;28;20570;-54
2023/07/19 06:21:29;;;;;;;0.87;0.87;;;;;19.00;95909.00;;;;5068362;28;20702;-54
2023/07/19 06:23:57;;;;;;;0.73;0.73;;;;;19.00;95910.00;;;;5068703;28;20211;-55
2023/07/19 06:26:24;;;;;;;1.33;1.23;;;;;19.30;95910.00;;;;5070988;28;20298;-54
2023/07/19 06:28:52;;;;;;;0.50;0.50;;;;;19.30;95900.00;;;;5070576;28;20211;-55
2023/07/19 06:31:20;;;;;;;0.60;0.60;;;;;19.30;95911.00;;;;5071283;28;20245;-55
2023/07/19 06:33:48;;;;;;;0.63;0.63;;;;;19.30;95903.00;;;;5070563;28;20196;-55
2023/07/19 06:36:16;;;;;;;0.87;0.87;;;;;19.40;95905.00;;;;5071355;28;20206;-54
2023/07/19 06:38:43;;;;;;;0.93;0.93;;;;;19.60;95897.00;;;;5069378;28;20200;-54
2023/07/19 06:41:11;;;;;;;0.97;0.93;;;;;19.70;95898.00;;;;5071400;28;20202;-53
2023/07/19 06:43:38;;;;;;;0.67;0.67;;;;;19.90;95900.00;;;;5070965;28;20200;-54
2023/07/19 06:46:06;;;;;;;0.70;0.70;;;;;20.00;95902.00;;;;5070996;28;20219;-54
2023/07/19 06:48:33;;;;;;;0.60;0.60;;;;;20.00;95909.00;;;;5071317;28;20210;-59
2023/07/19 06:51:02;;;;;;;0.80;0.80;;;;;20.20;95901.00;;;;5075035;28;20195;-54
2023/07/19 06:53:30;;;;;;;1.33;1.33;;;;;20.00;95899.00;;;;5073243;28;20195;-54
2023/07/19 06:55:59;;;;;;;0.50;0.50;;;;;20.00;95904.00;;;;5056907;28;20551;-53
2023/07/19 06:58:27;;;;;;;1.37;1.27;;;;;20.10;95887.00;;;;5074035;28;20611;-54
2023/07/19 07:00:56;;;;;;;1.33;1.30;;;;;20.10;95892.00;;;;5074579;28;20200;-53
2023/07/19 07:03:23;;;;;;;0.60;0.60;;;;;20.10;95892.00;;;;5074413;28;20249;-55
2023/07/19 07:05:51;;;;;;;0.63;0.63;;;;;20.20;95886.00;;;;5074381;28;20690;-54
2023/07/19 07:08:20;;;;;;;1.37;1.27;;;;;20.50;95890.00;;;;5072714;28;20298;-53
2023/07/19 07:10:47;;;;;;;0.80;0.80;;;;;20.60;95890.00;;;;5074204;28;20207;-54
2023/07/19 07:13:15;;;;;;;1.03;0.80;;;;;20.80;95891.00;;;;5074087;28;20191;-54
2023/07/19 07:15:42;;;;;;;0.80;0.80;;;;;20.90;95882.00;;;;5074194;28;20196;-54
2023/07/19 07:18:09;;;;;;;1.43;1.33;;;;;21.00;95885.00;;;;5073987;28;20716;-54
2023/07/19 07:20:37;;;;;;;0.53;0.53;;;;;21.20;95890.00;;;;5073998;28;20203;-53
2023/07/19 07:23:05;;;;;;;1.03;1.00;;;;;21.40;95880.00;;;;5073819;28;20199;-54
2023/07/19 07:25:34;;;;;;;0.70;0.70;;;;;21.50;95879.00;;;;5074247;28;20211;-54
2023/07/19 07:28:02;;;;;;;0.77;0.77;;;;;21.70;95880.00;;;;5073282;28;20227;-54
2023/07/19 07:30:29;;;;;;;0.50;0.50;;;;;21.70;95887.00;;;;5072825;28;20200;-54
2023/07/19 07:32:57;;;;;;;5.83;0.80;;;;;22.00;95889.00;;;;5073815;28;20199;-54
2023/07/19 07:35:24;;;;;;;0.70;0.70;;;;;21.90;95880.00;;;;5073398;28;20203;-54
2023/07/19 07:37:51;;;;;;;0.68;0.68;;;;;22.00;95895.00;;;;5073674;28;20239;-54
2023/07/19 07:40:19;;;;;;;0.70;0.70;;;;;22.00;95879.00;;;;5073652;28;20199;-54
2023/07/19 07:42:48;;;;;;;0.40;0.40;;;;;22.20;95900.00;;;;5073534;28;20191;-54
2023/07/19 07:45:15;;;;;;;0.93;0.90;;;;;22.40;95894.00;;;;5073465;28;20220;-54
2023/07/19 07:47:43;;;;;;;4.38;1.05;;;;;22.50;95894.00;;;;5055566;28;20720;-54
2023/07/19 07:50:11;;;;;;;1.15;1.15;;;;;22.60;95898.00;;;;5073437;28;20196;-54
2023/07/19 07:52:39;;;;;;;7.40;1.85;;;;;22.80;95900.00;;;;5073398;28;20195;-54
2023/07/19 07:55:07;;;;;;;0.50;0.50;;;;;23.00;95907.00;;;;5072217;28;20195;-57
2023/07/19 07:57:36;;;;;;;0.73;0.73;;;;;23.10;95900.00;;;;5073273;28;20223;-54
2023/07/19 08:00:07;;;;;;;0.95;0.95;;;;;23.20;95897.00;;;;5071381;28;20737;-56
2023/07/19 08:02:35;;;;;;;0.70;0.70;;;;;23.20;95897.00;;;;5072532;28;20274;-54
2023/07/19 08:05:03;;;;;;;0.90;0.90;;;;;23.10;95898.00;;;;5073443;28;20227;-54
2023/07/19 08:07:31;;;;;;;0.40;0.40;;;;;23.30;95900.00;;;;5072362;28;20219;-54
2023/07/19 08:09:58;;;;;;;0.63;0.63;;;;;23.10;95902.00;;;;5073175;28;20289;-54
2023/07/19 08:12:26;;;;;;;0.60;0.60;;;;;23.20;95906.00;;;;5071899;28;20654;-54
2023/07/19 08:14:53;;;;;;;0.88;0.88;;;;;23.20;95908.00;;;;5055091;28;20199;-54
2023/07/19 08:17:22;;;;;;;0.90;0.80;;;;;23.40;95903.00;;;;5071913;28;20660;-54
2023/07/19 08:19:49;;;;;;;1.13;1.02;;;;;23.80;95901.00;;;;5072545;28;20566;-54
2023/07/19 08:22:27;;;;;;;0.60;0.60;;;;;23.90;95898.00;;;;5072837;28;20200;-54
2023/07/19 08:24:55;;;;;;;0.70;0.70;;;;;23.80;95896.00;;;;5072539;28;20198;-54
2023/07/19 08:27:24;;;;;;;0.50;0.50;;;;;23.90;95893.00;;;;5072706;28;20247;-54
2023/07/19 08:29:52;;;;;;;0.40;0.40;;;;;24.10;95898.00;;;;5072811;28;20265;-54
2023/07/19 08:32:20;;;;;;;0.70;0.70;;;;;24.30;95891.00;;;;5072757;28;20226;-54
2023/07/19 08:34:48;;;;;;;0.40;0.40;;;;;24.50;95893.00;;;;5072832;28;20553;-54
2023/07/19 08:37:15;;;;;;;1.15;1.15;;;;;24.50;95893.00;;;;5072472;28;20219;-54
2023/07/19 08:39:43;;;;;;;0.82;0.77;;;;;24.40;95884.00;;;;5072583;28;20218;-55
2023/07/19 08:42:10;;;;;;;0.60;0.60;;;;;24.60;95883.00;;;;5072435;28;20202;-54
2023/07/19 08:44:38;;;;;;;0.50;0.50;;;;;24.30;95890.00;;;;5072709;28;20202;-54
2023/07/19 08:47:07;;;;;;;0.55;0.55;;;;;24.40;95886.00;;;;5072588;28;20219;-54
2023/07/19 08:49:37;;;;;;;0.70;0.70;;;;;24.60;95884.00;;;;5054445;28;20192;-54
2023/07/19 08:52:07;;;;;;;0.77;0.77;;;;;24.70;95874.00;;;;5072427;28;20218;-54
2023/07/19 08:54:35;;;;;;;0.70;0.70;;;;;24.90;95870.00;;;;5072311;28;20204;-54
2023/07/19 08:57:05;;;;;;;0.60;0.60;;;;;25.10;95874.00;;;;5072203;28;20555;-54
2023/07/19 08:59:32;;;;;;;0.57;0.57;;;;;25.10;95863.00;;;;5072321;28;20195;-55
2023/07/19 09:02:00;;;;;;;0.50;0.50;;;;;25.20;95864.00;;;;5072228;28;20203;-55
2023/07/19 09:04:27;;;;;;;1.08;0.93;;;;;25.10;95870.00;;;;5072312;28;20199;-54
2023/07/19 09:06:57;;;;;;;0.80;0.80;;;;;24.80;95863.00;;;;5071966;28;20226;-54
2023/07/19 09:09:24;;;;;;;1.15;0.85;;;;;24.90;95877.00;;;;5072143;28;20199;-54
2023/07/19 09:11:52;;;;;;;0.77;0.77;;;;;24.90;95866.00;;;;5071660;28;20248;-54
2023/07/19 09:14:19;;;;;;;0.65;0.65;;;;;24.90;95874.00;;;;5072024;28;20226;-56
2023/07/19 09:16:47;;;;;;;0.50;0.50;;;;;24.70;95876.00;;;;5072148;28;20642;-55
2023/07/19 09:19:15;;;;;;;0.90;0.90;;;;;24.80;95860.00;;;;5071508;28;20277;-56
2023/07/19 09:21:44;;;;;;;0.98;0.93;;;;;25.20;95855.00;;;;5071625;28;20203;-54
2023/07/19 09:24:14;;;;;;;1.08;1.08;;;;;25.30;95871.00;;;;5070267;28;20670;-54
2023/07/19 09:26:48;;;;;;;1.00;1.00;;;;;24.80;95859.00;;;;5071597;28;20796;-54
2023/07/19 09:29:16;;;;;;;0.50;0.50;;;;;24.90;95858.00;;;;5071465;28;20195;-54
2023/07/19 09:31:54;;;;;;;0.80;0.80;;;;;25.10;95858.00;;;;5070507;28;20278;-54
2023/07/19 09:34:23;;;;;;;3.42;1.60;;;;;25.00;95854.00;;;;5071206;28;20210;-54
2023/07/19 09:36:52;;;;;;;0.57;0.57;;;;;25.40;95847.00;;;;5071517;28;20215;-54
2023/07/19 09:39:21;;;;;;;0.60;0.60;;;;;25.50;95845.00;;;;5071416;28;20203;-54
2023/07/19 09:41:49;;;;;;;2.17;1.00;;;;;25.60;95842.00;;;;5071498;28;20732;-54
2023/07/19 09:44:17;;;;;;;0.85;0.85;;;;;25.70;95843.00;;;;5071441;28;20206;-54
2023/07/19 09:46:45;;;;;;;0.90;0.90;;;;;26.00;95841.00;;;;5071321;28;20694;-54
2023/07/19 09:49:13;;;;;;;0.70;0.70;;;;;26.40;95848.00;;;;5072071;28;20206;-54
2023/07/19 09:51:42;;;;;;;1.17;1.13;;;;;26.60;95842.00;;;;5070869;28;20196;-54
2023/07/19 09:54:12;;;;;;;1.38;1.27;;;;;26.90;95840.00;;;;5071578;28;20334;-54
2023/07/19 09:56:42;;;;;;;0.88;0.88;;;;;26.70;95840.00;;;;5071343;28;20230;-54
2023/07/19 09:59:14;;;;;;;0.60;0.60;;;;;26.60;95833.00;;;;5071226;28;20657;-54
2023/07/19 10:01:41;;;;;;;0.60;0.60;;;;;26.60;95839.00;;;;5071328;28;20188;-54
2023/07/19 10:04:26;;;;;;;0.65;0.65;;;;;26.60;95838.00;;;;5070420;28;20191;-54
2023/07/19 10:07:04;;;;;;;0.90;0.90;;;;;26.30;95837.00;;;;5070428;28;20726;-54
2023/07/19 10:09:33;;;;;;;0.75;0.65;;;;;26.20;95844.00;;;;5070894;28;20226;-54
2023/07/19 10:12:07;;;;;;;0.65;0.65;;;;;26.20;95841.00;;;;5051741;28;20195;-54
2023/07/19 10:14:34;;;;;;;1.00;1.00;;;;;26.10;95846.00;;;;5070290;28;20198;-54
2023/07/19 10:17:04;;;;;;;1.02;1.02;;;;;26.40;95829.00;;;;5070796;28;20211;-55
2023/07/19 10:19:31;;;;;;;0.70;0.70;;;;;26.50;95840.00;;;;5070994;28;20223;-55
2023/07/19 10:22:06;;;;;;;0.52;0.52;;;;;26.50;95831.00;;;;5071053;28;20195;-55
2023/07/19 10:24:36;;;;;;;0.75;0.75;;;;;26.60;95841.00;;;;5070382;28;20214;-55
2023/07/19 10:27:07;;;;;;;0.68;0.68;;;;;26.20;95841.00;;;;5070717;28;20231;-55
2023/07/19 10:29:44;;;;;;;0.90;0.90;;;;;25.80;95838.00;;;;5052965;28;20684;-55
2023/07/19 10:32:12;;;;;;;0.70;0.70;;;;;26.30;95830.00;;;;5069886;28;20245;-58
2023/07/19 10:34:43;;;;;;;0.65;0.65;;;;;26.30;95836.00;;;;5070905;28;20211;-55
2023/07/19 10:37:11;;;;;;;0.88;0.88;;;;;26.20;95837.00;;;;5070727;28;20218;-55
2023/07/19 10:39:38;;;;;;;0.80;0.80;;;;;26.20;95836.00;;;;5052807;28;20226;-55
2023/07/19 10:42:08;;;;;;;0.57;0.57;;;;;26.20;95835.00;;;;5070752;28;20670;-55
2023/07/19 10:44:35;;;;;;;0.80;0.80;;;;;26.20;95846.00;;;;5070650;28;20223;-55
2023/07/19 10:47:04;;;;;;;0.73;0.73;;;;;26.30;95837.00;;;;5070528;28;20226;-55
2023/07/19 10:49:32;;;;;;;0.73;0.73;;;;;26.50;95838.00;;;;5070677;28;20737;-55
2023/07/19 10:52:00;;;;;;;0.70;0.70;;;;;26.60;95840.00;;;;5070627;28;20200;-54
2023/07/19 10:54:28;;;;;;;0.70;0.70;;;;;26.40;95838.00;;;;5070579;28;20199;-54
2023/07/19 10:56:57;;;;;;;0.55;0.55;;;;;26.90;95839.00;;;;5070445;28;20216;-54
2023/07/19 10:59:25;;;;;;;1.08;1.05;;;;;26.70;95850.00;;;;5070525;28;20204;-55
2023/07/19 11:01:53;;;;;;;0.90;0.90;;;;;26.60;95841.00;;;;5071160;28;20555;-55
2023/07/19 11:04:20;;;;;;;0.90;0.90;;;;;27.20;95834.00;;;;5071162;28;20218;-56
2023/07/19 11:06:55;;;;;;;0.70;0.70;;;;;27.30;95824.00;;;;5069058;28;20286;-55
2023/07/19 11:09:23;;;;;;;1.42;1.33;;;;;27.20;95834.00;;;;5052624;28;20203;-55
2023/07/19 11:11:51;;;;;;;1.35;1.25;;;;;27.30;95815.00;;;;5070534;28;20206;-56
2023/07/19 11:14:30;;;;;;;0.88;0.88;;;;;27.60;95802.00;;;;5070962;28;20655;-54
2023/07/19 11:16:58;;;;;;;0.95;0.95;;;;;27.80;95818.00;;;;5070427;28;20233;-54
2023/07/19 11:19:36;;;;;;;0.57;0.57;;;;;27.50;95807.00;;;;5070501;28;20199;-54
2023/07/19 11:22:04;;;;;;;0.77;0.77;;;;;27.40;95797.00;;;;5070683;28;20579;-55
2023/07/19 11:24:39;;;;;;;0.90;0.90;;;;;27.40;95802.00;;;;5070372;28;20191;-54
2023/07/19 11:27:08;;;;;;;0.82;0.82;;;;;27.20;95813.00;;;;5070398;28;20265;-54
2023/07/19 11:29:37;;;;;;;1.88;1.40;;;;;27.60;95786.00;;;;5065890;28;20693;-54
2023/07/19 11:32:18;;;;;;;0.85;0.82;;;;;28.00;95788.00;;;;5070227;28;20681;-54
2023/07/19 11:34:47;;;;;;;1.20;1.10;;;;;28.00;95784.00;;;;5071646;28;20202;-54
2023/07/19 11:37:20;;;;;;;1.75;1.65;;;;;27.90;95794.00;;;;5073698;28;20243;-54
2023/07/19 11:39:49;;;;;;;0.93;0.93;;;;;27.60;95807.00;;;;5072157;28;20194;-54
2023/07/19 11:42:31;;;;;;;0.70;0.70;;;;;27.00;95794.00;;;;5074130;28;20286;-54
2023/07/19 11:45:00;;;;;;;0.70;0.70;;;;;26.80;95806.00;;;;5068598;28;20222;-54
2023/07/19 11:47:27;;;;;;;0.73;0.73;;;;;26.60;95796.00;;;;5073580;28;20245;-54
2023/07/19 11:49:55;;;;;;;0.70;0.70;;;;;26.70;95788.00;;;;5069735;28;20207;-54
2023/07/19 11:52:23;;;;;;;1.08;1.05;;;;;26.80;95794.00;;;;5055347;28;20207;-54
2023/07/19 11:54:51;;;;;;;1.17;1.08;;;;;26.10;95800.00;;;;5068995;28;20634;-54
2023/07/19 11:57:18;;;;;;;0.95;0.95;;;;;26.10;95814.00;;;;5073746;28;20251;-54
2023/07/19 11:59:48;;;;;;;1.00;1.00;;;;;26.00;95808.00;;;;5073147;28;20221;-54
2023/07/19 12:02:17;;;;;;;0.85;0.85;;;;;26.40;95794.00;;;;5055684;28;20685;-54
2023/07/19 12:04:44;;;;;;;0.60;0.60;;;;;26.50;95812.00;;;;5072880;28;20215;-54
2023/07/19 12:07:12;;;;;;;1.02;1.00;;;;;26.40;95803.00;;;;5073461;28;20223;-54
2023/07/19 12:09:39;;;;;;;1.05;1.05;;;;;26.60;95798.00;;;;5073200;28;20260;-55
2023/07/19 12:12:09;;;;;;;0.70;0.70;;;;;26.50;95805.00;;;;5073203;28;20192;-54
2023/07/19 12:14:36;;;;;;;1.05;1.05;;;;;26.60;95782.00;;;;5072839;28;20195;-55
2023/07/19 12:17:06;;;;;;;0.85;0.85;;;;;26.60;95784.00;;;;5073150;28;20218;-55
2023/07/19 12:19:35;;;;;;;0.82;0.82;;;;;26.30;95791.00;;;;5072248;28;20191;-55
2023/07/19 12:22:04;;;;;;;0.90;0.90;;;;;26.30;95792.00;;;;5073021;28;20195;-55
2023/07/19 12:24:31;;;;;;;1.15;1.15;;;;;26.20;95782.00;;;;5072928;28;20208;-54